Terminal Aerodrome Forecast
Issued by NWS

Home | Current Version | Previous Version | Text Only | Print | Product List | Glossary On
Versions: 1 2 3 4 5 6 7 8 9 10 11 12 13 14 15 16 17 18 19 20 21 22 23 24 25 26 27
000
FTUS41 KBUF 050525
TAFIAG
TAF
KIAG 050525Z 0506/0606 28005KT P6SM OVC080
     FM050700 28005KT P6SM BKN070
     FM051600 27012G18KT P6SM BKN080
     FM052200 29012KT P6SM BKN060
     FM060000 30007KT P6SM BKN250=

USA.gov is the U.S. government's official web portal to all federal, state and local government web resources and services.